Time;durP1;ratioP1;P1;durP2;ratioP2;P2;SDS_P1;SDS_P2;PMS_P1;PMS_P2;Temp;Humidity;BMP_temperature;BMP_pressure;BME280_temperature;BME280_humidity;BME280_pressure;Samples;Min_cycle;Max_cycle;Signal;HPM_P1;HPM_P2
2020/12/16 00:01:18;;;;;;;9.73;8.38;;;;;;;4.39;100.00;101026.72;10175212;29;20052;-70
2020/12/16 00:06:19;;;;;;;14.50;12.65;;;;;;;4.38;100.00;101036.31;10175016;29;20055;-70
2020/12/16 00:11:20;;;;;;;12.70;11.27;;;;;;;4.47;100.00;101040.53;10174073;29;20051;-70
2020/12/16 00:16:21;;;;;;;12.70;11.32;;;;;;;4.38;100.00;101041.53;10175062;29;20048;-70
2020/12/16 00:21:23;;;;;;;13.32;11.02;;;;;;;4.69;100.00;101056.78;10145072;29;20052;-70
2020/12/16 00:26:24;;;;;;;34.65;17.38;;;;;;;5.13;100.00;101054.41;10173327;29;20059;-70
2020/12/16 00:31:25;;;;;;;12.52;10.57;;;;;;;4.89;100.00;101053.03;10174879;29;20481;-70
2020/12/16 00:36:26;;;;;;;12.60;9.23;;;;;;;4.89;100.00;101058.25;10173848;29;20044;-70
2020/12/16 00:41:31;;;;;;;11.98;9.68;;;;;;;5.01;100.00;101064.19;10172600;29;20059;-70
2020/12/16 00:46:33;;;;;;;12.77;11.35;;;;;;;5.17;100.00;101053.50;10171023;29;20063;-70
2020/12/16 00:51:34;;;;;;;17.15;14.48;;;;;;;5.23;100.00;101063.84;10172183;29;20044;-70
2020/12/16 00:56:36;;;;;;;18.60;14.40;;;;;;;5.11;100.00;101068.38;10172989;29;20116;-70
2020/12/16 01:01:37;;;;;;;33.42;17.05;;;;;;;4.95;100.00;101065.13;10162582;29;20473;-70
2020/12/16 01:06:40;;;;;;;18.67;14.32;;;;;;;5.49;100.00;101068.69;10145323;29;20109;-70
2020/12/16 01:11:44;;;;;;;49.08;22.50;;;;;;;5.82;100.00;101072.47;10168261;29;20080;-70
2020/12/16 01:16:45;;;;;;;17.20;13.63;;;;;;;5.84;100.00;101056.78;10172310;29;20096;-70
2020/12/16 01:21:52;;;;;;;31.17;19.00;;;;;;;5.73;100.00;101063.03;10154893;29;20048;-70
2020/12/16 01:26:54;;;;;;;21.23;14.02;;;;;;;5.83;100.00;101065.50;10176576;29;20063;-71
2020/12/16 01:31:56;;;;;;;21.17;14.35;;;;;;;5.88;100.00;101064.56;10195648;29;20056;-70
2020/12/16 01:37:05;;;;;;;18.70;14.18;;;;;;;5.89;100.00;101061.06;10181120;29;20468;-70
2020/12/16 01:42:15;;;;;;;15.55;13.93;;;;;;;5.43;100.00;101060.94;10179109;29;20059;-70
2020/12/16 01:47:17;;;;;;;16.40;14.63;;;;;;;5.28;100.00;101062.03;10180000;29;20115;-70
2020/12/16 01:52:27;;;;;;;16.05;14.20;;;;;;;5.04;100.00;101066.75;10179195;29;20377;-70
2020/12/16 01:57:37;;;;;;;19.48;14.88;;;;;;;5.59;100.00;101074.63;10178780;29;20134;-70
2020/12/16 02:02:50;;;;;;;21.38;15.50;;;;;;;5.82;100.00;101074.22;10179933;29;20063;-70
2020/12/16 02:08:03;;;;;;;21.75;18.10;;;;;;;5.62;100.00;101082.41;10178661;29;20415;-70
2020/12/16 02:13:07;;;;;;;20.00;17.70;;;;;;;5.53;100.00;101065.09;10177641;29;20144;-70
2020/12/16 02:18:14;;;;;;;17.83;15.43;;;;;;;5.77;100.00;101061.25;10178496;29;20481;-70
2020/12/16 02:23:19;;;;;;;21.25;18.67;;;;;;;5.44;100.00;101065.25;10177671;29;20143;-70
2020/12/16 02:28:22;;;;;;;18.70;16.20;;;;;;;5.37;100.00;101078.44;10177385;29;20115;-70
2020/12/16 02:33:25;;;;;;;18.83;15.50;;;;;;;5.50;100.00;101069.53;10176464;29;20052;-70
2020/12/16 02:38:32;;;;;;;21.05;16.00;;;;;;;5.61;100.00;101078.91;10177774;29;20051;-70
2020/12/16 02:43:34;;;;;;;22.88;18.23;;;;;;;5.58;100.00;101070.28;10177843;29;20044;-70
2020/12/16 02:48:35;;;;;;;18.63;14.48;;;;;;;5.53;100.00;101077.31;10177422;29;20083;-70
2020/12/16 02:53:39;;;;;;;18.60;15.15;;;;;;;5.52;100.00;101070.38;10176576;29;20052;-71
2020/12/16 02:58:59;;;;;;;16.50;14.02;;;;;;;5.44;100.00;101072.25;10175516;29;20066;-70
2020/12/16 03:04:01;;;;;;;15.90;14.13;;;;;;;5.28;100.00;101075.09;10176665;29;20147;-70
2020/12/16 03:09:28;;;;;;;19.38;16.48;;;;;;;5.13;100.00;101064.00;10169115;29;20139;-70
2020/12/16 03:14:30;;;;;;;16.08;13.10;;;;;;;4.89;100.00;101055.66;10175533;29;20147;-70
2020/12/16 03:19:34;;;;;;;14.93;12.13;;;;;;;4.72;100.00;101046.31;10175334;29;20460;-70
2020/12/16 03:24:35;;;;;;;14.65;11.40;;;;;;;4.73;100.00;101045.44;10176949;29;20396;-70
2020/12/16 03:29:46;;;;;;;17.92;13.85;;;;;;;4.66;100.00;101051.63;10174732;29;20094;-70
2020/12/16 03:35:06;;;;;;;18.15;14.35;;;;;;;4.58;100.00;101033.47;10176485;29;20394;-70
2020/12/16 03:40:08;;;;;;;14.95;12.43;;;;;;;4.20;100.00;101023.47;10175879;29;20055;-70
2020/12/16 03:45:22;;;;;;;77.95;15.52;;;;;;;3.61;100.00;101006.72;10174842;29;20051;-70
2020/12/16 03:50:23;;;;;;;48.10;11.30;;;;;;;3.13;100.00;100995.00;10174330;29;20060;-70
2020/12/16 03:55:26;;;;;;;14.77;10.98;;;;;;;3.22;100.00;101007.06;10172660;29;20060;-70
2020/12/16 04:00:48;;;;;;;22.67;16.65;;;;;;;3.53;100.00;101023.28;10175801;29;20107;-70
2020/12/16 04:05:51;;;;;;;21.67;16.67;;;;;;;3.22;100.00;101014.88;10174552;29;20139;-70
2020/12/16 04:10:54;;;;;;;27.08;19.35;;;;;;;4.40;100.00;101050.19;10173704;29;20135;-70
2020/12/16 04:15:55;;;;;;;25.60;19.85;;;;;;;4.49;100.00;101046.63;10158965;29;20100;-70
2020/12/16 04:20:57;;;;;;;24.15;16.88;;;;;;;3.82;100.00;101029.13;10134617;29;20516;-70
2020/12/16 04:25:59;;;;;;;24.30;17.17;;;;;;;3.54;100.00;101032.84;10166423;29;20064;-70
2020/12/16 04:31:03;;;;;;;20.83;15.90;;;;;;;3.39;100.00;101026.91;10173909;29;20090;-70
2020/12/16 04:36:04;;;;;;;21.27;14.57;;;;;;;3.39;100.00;101033.84;10172751;29;20040;-70
2020/12/16 04:41:07;;;;;;;21.05;15.77;;;;;;;3.60;100.00;101038.84;10174056;29;20063;-70
2020/12/16 04:46:17;;;;;;;30.63;20.27;;;;;;;3.52;100.00;101040.66;10166697;29;20142;-70
2020/12/16 04:51:19;;;;;;;36.15;21.05;;;;;;;3.51;100.00;101032.88;10165214;29;20052;-70
2020/12/16 04:56:22;;;;;;;31.08;19.45;;;;;;;3.46;100.00;101030.31;10166663;29;20072;-70
2020/12/16 05:01:43;;;;;;;31.00;19.30;;;;;;;3.66;100.00;101046.63;10163533;29;20052;-70
2020/12/16 05:06:52;;;;;;;21.42;14.05;;;;;;;4.29;100.00;101077.28;10181190;29;20052;-70
2020/12/16 05:11:53;;;;;;;15.70;11.88;;;;;;;4.25;100.00;101071.25;10182326;29;20052;-70
2020/12/16 05:17:08;;;;;;;20.08;14.68;;;;;;;4.22;100.00;101052.16;10180799;29;20044;-70
2020/12/16 05:22:22;;;;;;;10.70;8.85;;;;;;;4.05;100.00;101060.16;10167790;29;20079;-70
2020/12/16 05:27:27;;;;;;;12.98;9.18;;;;;;;3.75;100.00;101053.50;10180044;29;20460;-70
2020/12/16 05:32:36;;;;;;;13.50;8.02;;;;;;;3.37;100.00;101052.06;10180794;29;20393;-70
2020/12/16 05:37:38;;;;;;;13.07;7.47;;;;;;;3.17;100.00;101050.50;10180516;29;20047;-70
2020/12/16 05:42:41;;;;;;;29.88;8.85;;;;;;;3.03;100.00;101059.25;10181365;29;20036;-70
2020/12/16 05:47:59;;;;;;;23.45;13.23;;;;;;;3.19;100.00;101051.34;10179740;29;20047;-70
2020/12/16 05:53:20;;;;;;;9.73;7.72;;;;;;;3.54;100.00;101064.09;10180782;29;20055;-70
2020/12/16 05:58:31;;;;;;;11.15;7.38;;;;;;;3.14;100.00;101048.78;10179744;29;20055;-70
2020/12/16 06:03:34;;;;;;;12.57;9.48;;;;;;;3.28;100.00;101054.75;10179229;29;20044;-70
2020/12/16 06:08:37;;;;;;;21.83;10.68;;;;;;;3.20;100.00;101056.53;10179169;29;20058;-70
2020/12/16 06:13:45;;;;;;;16.38;9.27;;;;;;;2.92;100.00;101068.03;10179309;29;20046;-70
2020/12/16 06:18:50;;;;;;;116.60;17.23;;;;;;;3.10;100.00;101080.91;10176728;29;20051;-70
2020/12/16 06:23:57;;;;;;;27.30;13.77;;;;;;;3.71;100.00;101090.88;10179494;29;20059;-70
2020/12/16 06:28:58;;;;;;;33.30;17.83;;;;;;;4.10;100.00;101092.28;10178102;29;20055;-70
2020/12/16 06:34:03;;;;;;;32.20;18.30;;;;;;;4.23;100.00;101101.69;10178595;29;20059;-70
2020/12/16 06:39:22;;;;;;;21.23;13.30;;;;;;;4.16;100.00;101113.94;10177647;29;20040;-70
2020/12/16 06:44:27;;;;;;;37.53;17.25;;;;;;;3.95;100.00;101119.31;10178037;29;20036;-69
2020/12/16 06:49:34;;;;;;;37.13;18.65;;;;;;;3.99;100.00;101107.13;10178319;29;20404;-69
2020/12/16 06:54:40;;;;;;;74.80;18.83;;;;;;;3.68;100.00;101104.78;10178645;29;20056;-69
2020/12/16 06:59:46;;;;;;;29.52;13.57;;;;;;;2.96;100.00;101104.41;10174725;29;20536;-69
2020/12/16 07:04:47;;;;;;;73.80;17.75;;;;;;;2.84;100.00;101103.63;10158832;29;20041;-69
2020/12/16 07:09:48;;;;;;;84.05;17.98;;;;;;;2.51;100.00;101096.84;10153820;29;20491;-69
2020/12/16 07:14:49;;;;;;;16.80;10.93;;;;;;;2.86;100.00;101114.88;10176595;29;20071;-69
2020/12/16 07:19:52;;;;;;;54.53;13.75;;;;;;;2.74;100.00;101101.94;10176141;29;20048;-69
2020/12/16 07:24:55;;;;;;;111.40;20.10;;;;;;;2.26;100.00;101081.28;10175988;29;20048;-70
2020/12/16 07:29:58;;;;;;;161.23;31.25;;;;;;;2.90;100.00;101099.25;10175687;29;20056;-69
2020/12/16 07:35:01;;;;;;;41.60;21.42;;;;;;;3.30;100.00;101110.28;10177206;29;20056;-69
2020/12/16 07:40:10;;;;;;;57.33;25.55;;;;;;;3.34;100.00;101109.41;10176950;29;20092;-69
2020/12/16 07:45:14;;;;;;;53.38;26.77;;;;;;;3.63;100.00;101118.72;10175886;29;20040;-69
2020/12/16 07:50:15;;;;;;;151.45;35.72;;;;;;;3.19;100.00;101117.28;10175009;29;20608;-69
2020/12/16 07:55:22;;;;;;;221.35;44.45;;;;;;;2.72;100.00;101111.47;10175959;29;20048;-69
2020/12/16 08:00:23;;;;;;;96.18;30.27;;;;;;;2.96;100.00;101121.75;10188621;29;20052;-69
2020/12/16 08:05:26;;;;;;;73.88;28.70;;;;;;;3.27;100.00;101123.31;10175825;29;20365;-69
2020/12/16 08:10:27;;;;;;;103.18;30.23;;;;;;;3.88;100.00;101138.50;10176159;29;20425;-69
2020/12/16 08:15:29;;;;;;;225.75;37.38;;;;;;;4.15;100.00;101134.78;10174497;29;20051;-69
2020/12/16 08:20:32;;;;;;;136.75;26.02;;;;;;;3.98;100.00;101111.50;10175555;29;20407;-69
2020/12/16 08:25:36;;;;;;;96.40;23.77;;;;;;;3.76;100.00;101103.00;10174465;29;20047;-69
2020/12/16 08:30:38;;;;;;;88.30;26.25;;;;;;;3.74;100.00;101086.50;10174290;29;20048;-69
2020/12/16 08:35:49;;;;;;;86.55;29.00;;;;;;;3.94;100.00;101103.69;10174086;29;20056;-69
2020/12/16 08:40:51;;;;;;;50.33;23.90;;;;;;;4.36;100.00;101111.09;10159604;29;20049;-67
2020/12/16 08:46:01;;;;;;;178.70;39.03;;;;;;;4.64;100.00;101113.41;10161713;29;20048;-69
2020/12/16 08:51:08;;;;;;;151.30;31.05;;;;;;;4.52;100.00;101102.22;10164381;29;20123;-69
2020/12/16 08:56:44;;;;;;;254.55;45.55;;;;;;;4.54;100.00;101110.03;10169385;29;20125;-69
2020/12/16 09:01:48;;;;;;;172.98;35.03;;;;;;;4.62;100.00;101100.34;10142464;29;20044;-69
2020/12/16 09:07:04;;;;;;;261.23;48.75;;;;;;;4.67;100.00;101103.78;10172582;29;20136;-69
2020/12/16 09:12:13;;;;;;;121.65;30.00;;;;;;;4.79;100.00;101106.25;10173901;29;20404;-69
2020/12/16 09:17:15;;;;;;;166.20;39.35;;;;;;;5.42;100.00;101124.53;10172561;29;20051;-69
2020/12/16 09:22:27;;;;;;;35.45;20.80;;;;;;;5.55;100.00;101118.22;10166249;29;20044;-69
2020/12/16 09:27:29;;;;;;;48.03;27.02;;;;;;;5.55;100.00;101115.59;10166475;29;20397;-69
2020/12/16 09:32:30;;;;;;;30.58;22.35;;;;;;;5.70;100.00;101112.75;10171631;29;20401;-69
2020/12/16 09:37:33;;;;;;;51.28;25.17;;;;;;;5.85;100.00;101106.44;10171333;29;20519;-69
2020/12/16 09:42:35;;;;;;;37.78;23.73;;;;;;;5.75;100.00;101097.00;10172757;29;20044;-69
2020/12/16 09:47:44;;;;;;;38.17;24.88;;;;;;;5.98;100.00;101104.47;10174711;29;20044;-69
2020/12/16 09:52:45;;;;;;;31.17;21.77;;;;;;;6.23;100.00;101094.44;10179451;29;20048;-69
2020/12/16 09:58:03;;;;;;;26.17;19.52;;;;;;;6.06;100.00;101082.53;10179681;29;20055;-69
2020/12/16 10:03:10;;;;;;;32.47;23.58;;;;;;;6.05;100.00;101065.13;10178657;29;20071;-69
2020/12/16 10:08:15;;;;;;;32.60;23.02;;;;;;;6.35;100.00;101073.28;10179700;29;20040;-69
2020/12/16 10:13:17;;;;;;;26.38;20.58;;;;;;;6.42;100.00;101074.88;10178946;29;20127;-69
2020/12/16 10:18:18;;;;;;;30.15;21.65;;;;;;;6.58;100.00;101059.72;10179124;29;20048;-69
2020/12/16 10:23:19;;;;;;;31.30;21.00;;;;;;;6.79;100.00;101047.03;10178937;29;20044;-69
2020/12/16 10:28:21;;;;;;;28.30;21.20;;;;;;;7.24;100.00;101042.53;10177091;29;20056;-69
2020/12/16 10:33:26;;;;;;;23.23;17.60;;;;;;;8.07;100.00;101030.81;10176844;29;20044;-69
2020/12/16 10:38:27;;;;;;;19.05;14.35;;;;;;;10.23;100.00;100998.50;10177923;29;20135;-70
2020/12/16 10:43:29;;;;;;;15.70;13.45;;;;;;;10.96;100.00;100961.44;10177955;29;20044;-69
2020/12/16 10:48:31;;;;;;;16.77;13.18;;;;;;;11.75;100.00;100929.13;10175626;29;20415;-70
2020/12/16 10:53:35;;;;;;;17.40;13.77;;;;;;;12.29;100.00;100903.78;10177869;29;20084;-70
2020/12/16 10:58:36;;;;;;;14.30;11.70;;;;;;;12.86;100.00;100886.06;10175002;29;20058;-70
2020/12/16 11:03:37;;;;;;;13.57;11.73;;;;;;;13.23;100.00;100870.09;10177911;29;20040;-70
2020/12/16 11:08:39;;;;;;;11.70;9.90;;;;;;;12.59;100.00;100853.91;10177327;29;20051;-69
2020/12/16 11:13:40;;;;;;;11.63;10.40;;;;;;;12.35;100.00;100863.88;10177240;29;20427;-69
2020/12/16 11:18:41;;;;;;;12.55;11.20;;;;;;;13.31;100.00;100867.06;10176755;29;20052;-69
2020/12/16 11:23:42;;;;;;;15.40;12.20;;;;;;;13.54;100.00;100863.25;10175897;29;20052;-69
2020/12/16 11:28:43;;;;;;;13.68;11.48;;;;;;;13.20;100.00;100837.66;10173906;29;20064;-69
2020/12/16 11:33:44;;;;;;;14.43;12.73;;;;;;;12.91;100.00;100849.66;10175021;29;20581;-69
2020/12/16 11:38:45;;;;;;;14.70;12.43;;;;;;;11.28;100.00;100819.50;10173811;29;20095;-69
2020/12/16 11:43:46;;;;;;;15.35;13.68;;;;;;;10.87;100.00;100824.78;10175224;29;20051;-69
2020/12/16 11:48:48;;;;;;;16.27;13.27;;;;;;;10.12;100.00;100826.91;10176246;29;20087;-69
2020/12/16 11:53:49;;;;;;;16.33;12.77;;;;;;;10.00;100.00;100831.78;10176193;29;20052;-69
2020/12/16 11:58:51;;;;;;;22.35;14.60;;;;;;;10.33;100.00;100824.38;10175131;29;20104;-69
2020/12/16 12:03:52;;;;;;;14.98;12.65;;;;;;;11.17;100.00;100819.09;10175412;29;20048;-69
2020/12/16 12:08:54;;;;;;;15.48;13.30;;;;;;;12.23;100.00;100808.09;10175121;29;20048;-69
2020/12/16 12:13:55;;;;;;;17.02;13.95;;;;;;;12.38;100.00;100783.63;10174553;29;20485;-69
2020/12/16 12:18:56;;;;;;;15.23;12.50;;;;;;;12.84;100.00;100764.50;10174457;29;20036;-69
2020/12/16 12:23:57;;;;;;;15.20;12.10;;;;;;;10.75;100.00;100748.00;10158817;29;20059;-69
2020/12/16 12:28:59;;;;;;;16.67;13.30;;;;;;;10.02;100.00;100756.25;10169183;29;20476;-69
2020/12/16 12:34:00;;;;;;;16.25;14.30;;;;;;;9.80;100.00;100777.25;10167252;29;20067;-69
2020/12/16 12:39:01;;;;;;;13.55;12.13;;;;;;;9.78;100.00;100789.63;10160933;29;20519;-69
2020/12/16 12:44:02;;;;;;;17.48;13.38;;;;;;;9.72;100.00;100779.31;10172240;29;20044;-69
2020/12/16 12:49:04;;;;;;;14.05;12.05;;;;;;;9.77;100.00;100788.78;10173874;29;20487;-69
2020/12/16 12:54:05;;;;;;;15.63;12.65;;;;;;;9.75;100.00;100790.59;10174121;29;20048;-69
2020/12/16 12:59:06;;;;;;;15.63;13.48;;;;;;;9.78;100.00;100794.91;10174133;29;20036;-69
2020/12/16 13:04:08;;;;;;;12.73;11.35;;;;;;;9.76;100.00;100787.06;10174366;29;20048;-69
2020/12/16 13:09:09;;;;;;;13.02;11.60;;;;;;;9.76;100.00;100783.56;10161562;29;20052;-69
2020/12/16 13:14:10;;;;;;;14.80;12.50;;;;;;;9.79;100.00;100796.63;10170091;29;20059;-68
2020/12/16 13:19:17;;;;;;;14.70;13.20;;;;;;;9.80;100.00;100804.44;10172017;29;20048;-69
2020/12/16 13:24:22;;;;;;;14.77;13.20;;;;;;;9.77;100.00;100809.84;10178570;29;20404;-68
2020/12/16 13:29:24;;;;;;;16.63;13.18;;;;;;;9.72;100.00;100809.13;10168730;29;20389;-68
2020/12/16 13:34:25;;;;;;;13.88;12.27;;;;;;;9.63;100.00;100809.47;10179965;29;20404;-68
2020/12/16 13:39:27;;;;;;;12.52;11.23;;;;;;;9.61;100.00;100807.81;10179353;29;20048;-69
2020/12/16 13:44:28;;;;;;;14.40;12.35;;;;;;;9.59;100.00;100800.00;10176766;29;20059;-69
2020/12/16 13:49:29;;;;;;;12.65;11.05;;;;;;;9.68;100.00;100801.41;10179354;29;20056;-69
2020/12/16 13:54:30;;;;;;;11.15;9.75;;;;;;;9.60;100.00;100778.03;10166682;29;20045;-69
2020/12/16 13:59:31;;;;;;;12.73;11.32;;;;;;;9.65;100.00;100798.88;10174687;29;20058;-69
2020/12/16 14:04:48;;;;;;;13.65;10.93;;;;;;;9.62;100.00;100806.91;10170605;29;20143;-69
2020/12/16 14:09:50;;;;;;;13.52;10.93;;;;;;;9.64;100.00;100794.53;10178586;29;20048;-69
2020/12/16 14:14:51;;;;;;;12.20;10.07;;;;;;;9.71;100.00;100782.88;10177376;29;20052;-69
2020/12/16 14:19:53;;;;;;;11.85;10.45;;;;;;;9.76;100.00;100766.00;10177190;29;20048;-69
2020/12/16 14:24:54;;;;;;;10.65;9.43;;;;;;;9.73;100.00;100766.13;10176692;29;20041;-69
2020/12/16 14:29:56;;;;;;;12.25;9.65;;;;;;;9.72;100.00;100760.91;10178945;29;20057;-69
2020/12/16 14:34:58;;;;;;;11.60;10.25;;;;;;;9.64;100.00;100777.00;10179161;29;20052;-69
2020/12/16 14:39:59;;;;;;;13.10;9.77;;;;;;;9.55;100.00;100771.22;10178243;29;20058;-69
2020/12/16 14:45:00;;;;;;;11.30;10.07;;;;;;;9.59;100.00;100778.09;10177526;29;20449;-69
2020/12/16 14:50:06;;;;;;;13.32;10.23;;;;;;;9.58;100.00;100782.50;10177170;29;20052;-69
2020/12/16 14:55:07;;;;;;;11.63;9.73;;;;;;;9.60;100.00;100785.06;10177747;29;20181;-69
2020/12/16 15:00:09;;;;;;;11.95;10.02;;;;;;;9.68;100.00;100777.75;10177576;29;20377;-69
2020/12/16 15:05:10;;;;;;;11.45;9.82;;;;;;;9.61;100.00;100782.38;10178064;29;20051;-69
2020/12/16 15:10:11;;;;;;;10.50;9.02;;;;;;;9.52;100.00;100790.63;10168652;29;20047;-69
2020/12/16 15:15:13;;;;;;;10.55;8.18;;;;;;;9.47;100.00;100797.78;10169140;29;20107;-69
2020/12/16 15:20:17;;;;;;;12.23;10.48;;;;;;;9.42;100.00;100808.50;10173665;29;20055;-69
2020/12/16 15:25:18;;;;;;;11.57;9.98;;;;;;;9.25;100.00;100791.59;10174528;29;20048;-69
2020/12/16 15:30:20;;;;;;;13.18;9.82;;;;;;;9.07;100.00;100801.00;10174767;29;20186;-69
2020/12/16 15:35:21;;;;;;;13.07;11.18;;;;;;;8.88;100.00;100803.41;10176010;29;20065;-69
2020/12/16 15:40:34;;;;;;;12.90;9.75;;;;;;;8.64;100.00;100805.09;10136482;29;20048;-69
2020/12/16 15:45:35;;;;;;;11.35;9.95;;;;;;;8.51;100.00;100808.16;10173618;29;20086;-70
2020/12/16 15:50:36;;;;;;;12.27;9.75;;;;;;;8.55;100.00;100807.16;10174658;29;20056;-70
2020/12/16 15:55:38;;;;;;;10.00;8.35;;;;;;;8.53;100.00;100809.84;10175170;29;20044;-70
2020/12/16 16:00:40;;;;;;;13.00;9.48;;;;;;;8.62;100.00;100820.03;10174141;29;20048;-70
2020/12/16 16:05:41;;;;;;;13.00;9.95;;;;;;;8.49;100.00;100800.34;10173052;29;20499;-70
2020/12/16 16:10:42;;;;;;;13.02;9.40;;;;;;;8.55;100.00;100804.50;10174606;29;20133;-70
2020/12/16 16:15:43;;;;;;;10.13;8.43;;;;;;;8.59;100.00;100798.28;10174152;29;20044;-70
2020/12/16 16:20:44;;;;;;;12.25;9.57;;;;;;;8.70;100.00;100799.63;10173597;29;20513;-70
2020/12/16 16:25:47;;;;;;;10.02;8.10;;;;;;;8.68;100.00;100796.19;10174246;29;20047;-70
2020/12/16 16:30:48;;;;;;;11.82;9.15;;;;;;;8.74;100.00;100803.88;10166266;29;20044;-70
2020/12/16 16:35:49;;;;;;;11.23;8.27;;;;;;;8.82;100.00;100795.72;10165195;29;20052;-70
2020/12/16 16:40:50;;;;;;;10.27;8.98;;;;;;;8.82;100.00;100802.75;10161937;29;20048;-70
2020/12/16 16:45:51;;;;;;;11.82;9.52;;;;;;;8.75;100.00;100802.97;10154310;29;20040;-70
2020/12/16 16:50:53;;;;;;;11.68;9.10;;;;;;;8.70;100.00;100793.53;10160651;29;20051;-69
2020/12/16 16:55:56;;;;;;;12.63;10.27;;;;;;;8.70;100.00;100794.38;10154605;29;20519;-70
2020/12/16 17:00:57;;;;;;;13.90;10.07;;;;;;;8.72;100.00;100787.28;10173318;29;20051;-70
2020/12/16 17:06:02;;;;;;;;;;;;;;;8.78;100.00;100785.38;10168987;29;20374;-69
2020/12/16 17:11:03;;;;;;;17.70;12.10;;;;;;;8.74;100.00;100793.38;10163328;29;19933;-70
2020/12/16 17:16:07;;;;;;;14.65;11.55;;;;;;;8.80;100.00;100800.16;10169759;29;20044;-70
2020/12/16 17:21:08;;;;;;;15.70;12.43;;;;;;;8.81;100.00;100785.25;10168166;29;20472;-70
2020/12/16 17:26:09;;;;;;;16.40;13.38;;;;;;;8.72;100.00;100789.06;10162235;29;20056;-70
2020/12/16 17:31:11;;;;;;;15.27;12.55;;;;;;;8.68;100.00;100798.84;10172082;29;20055;-71
2020/12/16 17:36:12;;;;;;;16.48;12.93;;;;;;;8.65;100.00;100803.31;10165267;29;20049;-71
2020/12/16 17:41:14;;;;;;;17.30;12.95;;;;;;;8.64;100.00;100793.72;10162447;29;20060;-70
2020/12/16 17:46:15;;;;;;;16.88;13.65;;;;;;;8.64;100.00;100801.59;10170024;29;20036;-69
2020/12/16 17:51:17;;;;;;;18.13;13.15;;;;;;;8.62;100.00;100801.63;10164653;29;20044;-69
2020/12/16 17:56:19;;;;;;;17.85;13.05;;;;;;;8.56;100.00;100801.84;10162179;29;20052;-69
2020/12/16 18:01:21;;;;;;;18.45;14.15;;;;;;;8.51;100.00;100801.16;10170387;29;20206;-69
2020/12/16 18:06:25;;;;;;;15.90;13.48;;;;;;;8.50;100.00;100796.81;10168983;29;20088;-69
2020/12/16 18:11:28;;;;;;;15.30;12.85;;;;;;;8.44;100.00;100797.00;10157881;29;20453;-70
2020/12/16 18:16:30;;;;;;;17.48;14.25;;;;;;;8.33;100.00;100791.25;10173169;29;20044;-69
2020/12/16 18:21:32;;;;;;;18.20;14.07;;;;;;;8.12;100.00;100789.28;10177960;29;20122;-69
2020/12/16 18:26:38;;;;;;;21.52;15.52;;;;;;;8.01;100.00;100797.47;10169032;29;20056;-69
2020/12/16 18:31:39;;;;;;;16.63;12.90;;;;;;;7.87;100.00;100786.50;10173398;29;20127;-69
2020/12/16 18:36:44;;;;;;;18.95;14.07;;;;;;;7.84;100.00;100794.50;10172775;29;20044;-69
2020/12/16 18:41:45;;;;;;;20.70;14.85;;;;;;;7.91;100.00;100799.50;10176448;29;20052;-69
2020/12/16 18:46:46;;;;;;;19.75;14.70;;;;;;;7.79;100.00;100799.84;10175929;29;20052;-69
2020/12/16 18:51:47;;;;;;;21.08;15.15;;;;;;;7.65;100.00;100788.94;10177185;29;20044;-69
2020/12/16 18:56:50;;;;;;;21.38;16.52;;;;;;;7.58;100.00;100801.38;10174410;29;20096;-69
2020/12/16 19:01:51;;;;;;;20.15;15.38;;;;;;;7.48;100.00;100799.03;10165992;29;20898;-69
2020/12/16 19:06:53;;;;;;;18.10;14.63;;;;;;;7.39;100.00;100800.16;10176879;29;20392;-69
2020/12/16 19:11:55;;;;;;;23.58;16.73;;;;;;;7.35;100.00;100797.69;10176898;29;20092;-69
2020/12/16 19:16:56;;;;;;;23.67;17.33;;;;;;;7.21;100.00;100793.66;10175137;29;20421;-69
2020/12/16 19:21:57;;;;;;;22.83;17.33;;;;;;;7.08;100.00;100800.16;10175456;29;20052;-69
2020/12/16 19:26:59;;;;;;;21.60;17.42;;;;;;;6.99;100.00;100789.91;10170394;29;20504;-69
2020/12/16 19:32:01;;;;;;;23.80;16.58;;;;;;;7.05;100.00;100805.47;10174813;29;20511;-69
2020/12/16 19:37:02;;;;;;;23.60;16.88;;;;;;;7.11;100.00;100802.66;10171489;29;20052;-69
2020/12/16 19:42:05;;;;;;;23.92;18.08;;;;;;;7.16;100.00;100810.41;10175328;29;20040;-69
2020/12/16 19:47:06;;;;;;;26.27;19.88;;;;;;;7.19;100.00;100807.72;10161315;29;20044;-69
2020/12/16 19:52:13;;;;;;;24.90;18.42;;;;;;;7.34;100.00;100812.53;10169808;29;20044;-69
2020/12/16 19:57:15;;;;;;;20.73;15.20;;;;;;;7.40;100.00;100812.38;10170121;29;20052;-69
2020/12/16 20:02:16;;;;;;;21.77;14.20;;;;;;;7.38;100.00;100810.69;10159685;29;20049;-69
2020/12/16 20:07:17;;;;;;;28.98;21.25;;;;;;;7.31;100.00;100806.50;10172858;29;20044;-69
2020/12/16 20:12:19;;;;;;;27.20;18.08;;;;;;;7.32;100.00;100810.84;10171061;29;20074;-69
2020/12/16 20:17:20;;;;;;;24.65;19.70;;;;;;;7.29;100.00;100817.03;10174111;29;20055;-69
2020/12/16 20:22:21;;;;;;;25.80;20.75;;;;;;;7.26;100.00;100813.66;10172700;29;20385;-69
2020/12/16 20:27:23;;;;;;;27.95;19.23;;;;;;;7.31;100.00;100819.63;10172827;29;20048;-69
2020/12/16 20:32:25;;;;;;;30.60;21.35;;;;;;;7.24;100.00;100813.69;10165953;29;20047;-69
2020/12/16 20:37:26;;;;;;;28.65;22.08;;;;;;;7.22;100.00;100818.09;10180766;29;20044;-69
2020/12/16 20:42:30;;;;;;;26.85;19.63;;;;;;;7.29;100.00;100824.91;10173661;29;20067;-69
2020/12/16 20:47:36;;;;;;;23.07;17.77;;;;;;;7.36;100.00;100826.47;10164980;29;20051;-69
2020/12/16 20:52:40;;;;;;;27.00;19.30;;;;;;;7.48;100.00;100833.97;10170015;29;20063;-69
2020/12/16 20:57:41;;;;;;;25.23;18.35;;;;;;;7.59;100.00;100839.78;10149516;29;20417;-69
2020/12/16 21:02:42;;;;;;;26.80;20.17;;;;;;;7.65;100.00;100833.50;10170195;29;20044;-69
2020/12/16 21:07:43;;;;;;;25.88;18.98;;;;;;;7.66;100.00;100834.38;10172633;29;20052;-69
2020/12/16 21:12:45;;;;;;;24.45;18.85;;;;;;;7.61;100.00;100829.28;10183308;29;20040;-69
2020/12/16 21:17:47;;;;;;;26.30;19.27;;;;;;;7.65;100.00;100832.66;10174623;29;20039;-69
2020/12/16 21:22:49;;;;;;;24.33;19.38;;;;;;;7.71;100.00;100832.47;10177855;29;20055;-69
2020/12/16 21:27:50;;;;;;;27.42;20.15;;;;;;;7.72;100.00;100829.81;10165608;29;20067;-69
2020/12/16 21:32:52;;;;;;;24.35;18.15;;;;;;;7.69;100.00;100826.44;10172001;29;20047;-69
2020/12/16 21:37:54;;;;;;;29.00;19.73;;;;;;;7.71;100.00;100833.31;10171122;29;20072;-69
2020/12/16 21:42:55;;;;;;;24.27;18.00;;;;;;;7.56;100.00;100829.38;10172689;29;20469;-69
2020/12/16 21:48:00;;;;;;;24.88;18.80;;;;;;;7.51;100.00;100826.03;10178281;29;20484;-69
2020/12/16 21:53:01;;;;;;;24.98;19.42;;;;;;;7.40;100.00;100830.72;10168720;29;20048;-69
2020/12/16 21:58:02;;;;;;;26.80;20.10;;;;;;;7.32;100.00;100827.44;10165315;29;20044;-69
2020/12/16 22:03:05;;;;;;;23.30;18.75;;;;;;;7.26;100.00;100832.00;10144629;29;20048;-69
2020/12/16 22:08:23;;;;;;;28.90;18.75;;;;;;;7.17;100.00;100825.25;10179164;29;20040;-69
2020/12/16 22:13:24;;;;;;;28.27;20.45;;;;;;;7.12;100.00;100827.09;10167058;29;20047;-69
2020/12/16 22:18:25;;;;;;;23.95;19.05;;;;;;;6.98;100.00;100808.28;10162670;29;20052;-69
2020/12/16 22:23:26;;;;;;;27.27;20.50;;;;;;;7.03;100.00;100828.22;10176944;29;20056;-69
2020/12/16 22:28:27;;;;;;;27.48;19.90;;;;;;;7.11;100.00;100834.09;10176885;29;20060;-69
2020/12/16 22:33:29;;;;;;;21.70;17.67;;;;;;;7.47;100.00;100847.13;10159112;29;20519;-69
2020/12/16 22:38:31;;;;;;;23.25;17.80;;;;;;;7.47;100.00;100849.75;10170550;29;20054;-69
2020/12/16 22:43:33;;;;;;;20.95;15.77;;;;;;;7.54;100.00;100846.91;10178338;29;20513;-69